ADDS METAR Data INFO
IDs: Format: Raw Decoded Include TAF

Data at: 1809 UTC 19 Oct 2017

K66R 191755Z AUTO 22006KT 10SM SCT039 27/16 A3013 RMK AO2 T02660162 10275 20121
K66R 191735Z AUTO 27004KT 10SM SCT039 27/16 A3014 RMK AO2 T02730159
K66R 191715Z AUTO 23005KT 10SM SCT037 27/17 A3015 RMK AO2 T02660166
K66R 191655Z AUTO 28004KT 10SM CLR 27/17 A3015 RMK AO2 T02650165
K66R 191635Z AUTO 27005KT 10SM CLR 26/17 A3015 RMK AO2 T02630170
K66R 191615Z AUTO 28006KT 10SM CLR 26/17 A3015 RMK AO2 T02590174
K66R 191555Z AUTO 27006KT 10SM CLR 25/18 A3015 RMK AO2 T02510177
K66R 191535Z AUTO 27004KT 10SM CLR 24/18 A3015 RMK AO2 T02400177
K66R 191510Z AUTO 29005KT 10SM CLR 23/18 A3015 RMK AO2 T02320177
K66R 191455Z AUTO 29005KT 10SM CLR 22/18 A3015 RMK AO2 T02220176
K66R 191435Z AUTO 29005KT 10SM CLR 21/18 A3014 RMK AO2 T02110176
K66R 191415Z AUTO 29005KT 10SM CLR 20/18 A3014 RMK AO2 T02000175
K66R 191355Z AUTO 30003KT 10SM CLR 18/17 A3014 RMK AO2 T01820166
K66R 191335Z AUTO 00000KT 7SM CLR 17/16 A3013 RMK AO2 LTG DSNT E T01660156
K66R 191315Z AUTO 00000KT 5SM BR CLR 15/15 A3013 RMK AO2 T01540146
K66R 191255Z AUTO 00000KT 4SM BR CLR 14/14 A3012 RMK AO2 T01440135
K66R 191235Z AUTO 00000KT 7SM CLR 12/11 A3012 RMK AO2 T01220113
K66R 191215Z AUTO 00000KT 2 1/2SM BR CLR 13/12 A3012 RMK AO2 VIS 1 1/4V5 T01250117
K66R 191155Z AUTO 00000KT 7SM CLR 12/12 A3012 RMK AO2 T01240115 10145 20124
K66R 191135Z AUTO 00000KT 7SM CLR 13/12 A3012 RMK AO2 T01270118
K66R 191115Z AUTO 00000KT 5SM BR SCT030 13/12 A3012 RMK AO2 T01320123
K66R 191055Z AUTO 00000KT 7SM SCT030 13/13 A3011 RMK AO2 T01340125
K66R 191035Z AUTO 00000KT 10SM CLR 12/11 A3011 RMK AO2 T01240114
K66R 191015Z AUTO 00000KT 3SM BR CLR 13/12 A3011 RMK AO2 T01250116
K66R 190955Z AUTO 00000KT 5SM BR CLR 13/13 A3011 RMK AO2 T01330125
K66R 190935Z AUTO 00000KT 7SM CLR 13/12 A3011 RMK AO2 T01270119
K66R 190915Z AUTO 00000KT 7SM CLR 14/14 A3011 RMK AO2 T01430135
K66R 190855Z AUTO 00000KT 7SM CLR 14/13 A3011 RMK AO2 T01350127
K66R 190835Z AUTO 00000KT 4SM BR CLR 13/13 A3011 RMK AO2 T01340125
K66R 190815Z AUTO 00000KT 10SM CLR 14/13 A3011 RMK AO2 T01360126
K66R 190755Z AUTO 00000KT 10SM SCT032 13/12 A3012 RMK AO2 T01320122
K66R 190735Z AUTO 00000KT 10SM CLR 14/12 A3012 RMK AO2 T01350123
K66R 190715Z AUTO 00000KT 7SM CLR 13/12 A3012 RMK AO2 T01330124
K66R 190655Z AUTO 00000KT 10SM CLR 14/13 A3012 RMK AO2 T01400131
K66R 190635Z AUTO 00000KT 10SM CLR 14/13 A3012 RMK AO2 T01380127
K66R 190615Z AUTO 00000KT 10SM CLR 14/13 A3012 RMK AO2 T01390127
K66R 190555Z AUTO 00000KT 10SM CLR 14/13 A3012 RMK AO2 T01410130 10201 20140 402740064
K66R 190535Z AUTO 00000KT 10SM CLR 15/13 A3013 RMK AO2 T01450131
K66R 190515Z AUTO 00000KT 10SM CLR 15/13 A3013 RMK AO2 T01480134
K66R 190455Z AUTO 00000KT 10SM CLR 15/13 A3014 RMK AO2 T01510131
K66R 190435Z AUTO 00000KT 10SM CLR 16/14 A3014 RMK AO2 T01610138
K66R 190415Z AUTO 00000KT 10SM CLR 16/13 A3014 RMK AO2 T01570133
K66R 190355Z AUTO 00000KT 10SM CLR 16/14 A3014 RMK AO2 T01630137
K66R 190335Z AUTO 24003KT 10SM CLR 17/13 A3014 RMK AO2 T01680134
K66R 190315Z AUTO 00000KT 10SM CLR 17/13 A3013 RMK AO2 T01710132
K66R 190255Z AUTO 00000KT 10SM CLR 18/14 A3013 RMK AO2 T01780137
K66R 190235Z AUTO 00000KT 10SM CLR 20/14 A3013 RMK AO2 T01950141
K66R 190215Z AUTO 20004KT 10SM CLR 20/13 A3012 RMK AO2 T01960132
K66R 190155Z AUTO 00000KT 10SM CLR 18/12 A3011 RMK AO2 T01790121
K66R 190135Z AUTO 00000KT 10SM CLR 18/13 A3011 RMK AO2 T01810125
K66R 190115Z AUTO 24003KT 10SM CLR 16/12 A3010 RMK AO2 T01620122
K66R 190055Z AUTO 00000KT 10SM CLR 18/12 A3010 RMK AO2 T01770117
K66R 190035Z AUTO 00000KT 10SM CLR 18/12 A3010 RMK AO2 T01780115
K66R 190015Z AUTO 00000KT 10SM CLR 18/12 A3010 RMK AO2 T01830117
K66R 182355Z AUTO 00000KT 10SM CLR 20/13 A3009 RMK AO2 T02010125 10274 20201
K66R 182335Z AUTO 00000KT 10SM CLR 22/12 A3009 RMK AO2 T02230121
K66R 182315Z AUTO 00000KT 10SM CLR 26/10 A3009 RMK AO2 T02550103
K66R 182255Z AUTO 00000KT 10SM CLR 26/09 A3009 RMK AO2 T02630088
K66R 182235Z AUTO 00000KT 10SM CLR 27/08 A3009 RMK AO2 T02670081
K66R 182215Z AUTO 27003KT 10SM CLR 27/08 A3010 RMK AO2 T02700075
K66R 182155Z AUTO 31003KT 10SM CLR 27/07 A3010 RMK AO2 T02700072
K66R 182135Z AUTO 25003KT 10SM CLR 27/08 A3010 RMK AO2 T02730079
K66R 182115Z AUTO 28003KT 10SM CLR 27/09 A3010 RMK AO2 T02700094
K66R 182055Z AUTO 22003KT 10SM CLR 27/09 A3011 RMK AO2 T02720086
K66R 182035Z AUTO 20004KT 10SM CLR 27/07 A3012 RMK AO2 T02710065
K66R 182015Z AUTO 21003KT 10SM CLR 27/07 A3012 RMK AO2 T02680074
K66R 181955Z AUTO 21004KT 10SM CLR 27/08 A3012 RMK AO2 T02650078
K66R 181935Z AUTO 29003KT 10SM CLR 26/08 A3013 RMK AO2 T02600081
K66R 181915Z AUTO 00000KT 10SM CLR 26/09 A3014 RMK AO2 T02580087
K66R 181855Z AUTO 00000KT 10SM CLR 26/09 A3015 RMK AO2 T02590092
K66R 181835Z AUTO 19004KT 10SM CLR 25/09 A3016 RMK AO2 T02540087
K66R 181815Z AUTO 20004KT 10SM CLR 25/08 A3017 RMK AO2 T02480080
K66R 181755Z AUTO 20004KT 10SM CLR 25/08 A3018 RMK AO2 T02470079 10247 20065
K66R 181735Z AUTO 20006KT 10SM CLR 25/09 A3018 RMK AO2 T02450088
K66R 181715Z AUTO 19004KT 10SM CLR 24/08 A3019 RMK AO2 T02410083
K66R 181655Z AUTO 21003KT 10SM CLR 24/07 A3020 RMK AO2 T02350070
K66R 181635Z AUTO 19007KT 10SM CLR 23/10 A3020 RMK AO2 T02300098
K66R 181615Z AUTO 22003KT 10SM CLR 22/10 A3020 RMK AO2 T02210100
K66R 181555Z AUTO 00000KT 10SM CLR 21/10 A3021 RMK AO2 T02140099
K66R 181535Z AUTO 27003KT 10SM CLR 21/11 A3021 RMK AO2 T02070105
K66R 181515Z AUTO 00000KT 10SM CLR 19/11 A3020 RMK AO2 T01940109
K66R 181455Z AUTO 00000KT 10SM CLR 18/11 A3020 RMK AO2 T01780111
K66R 181435Z AUTO 00000KT 10SM CLR 16/12 A3020 RMK AO2 T01600115
K66R 181415Z AUTO 00000KT 10SM CLR 14/12 A3020 RMK AO2 T01440117
K66R 181355Z AUTO 00000KT 7SM CLR 13/11 A3019 RMK AO2 T01270110
K66R 181335Z AUTO 00000KT 10SM CLR 11/10 A3018 RMK AO2 T01080100
K66R 181315Z AUTO 00000KT 10SM CLR 08/07 A3017 RMK AO2 T00820073
K66R 181300Z AUTO 00000KT 10SM CLR 07/06 A3017 RMK AO2 T00680059
K66R 181235Z AUTO 00000KT 10SM CLR 07/06 A3017 RMK AO2 LTG DSNT E T00660059
K66R 181215Z AUTO 00000KT 4SM BR CLR 07/06 A3017 RMK AO2 T00670058
K66R 181155Z AUTO 00000KT 2 1/2SM BR CLR 07/06 A3017 RMK AO2 VIS 3/4V5 T00670057 10093 20064
K66R 181135Z AUTO 00000KT 10SM CLR 07/06 A3016 RMK AO2 T00660056
K66R 181115Z AUTO 00000KT 10SM CLR 07/06 A3016 RMK AO2 T00700056
K66R 181055Z AUTO 00000KT 10SM CLR 07/06 A3016 RMK AO2 T00670057
K66R 181035Z AUTO 00000KT 10SM CLR 07/05 A3016 RMK AO2 T00650054
K66R 181015Z AUTO 00000KT 10SM CLR 07/06 A3016 RMK AO2 T00710060
K66R 180955Z AUTO 00000KT 10SM CLR 08/07 A3016 RMK AO2 T00780069
K66R 180935Z AUTO 00000KT 10SM CLR 08/07 A3016 RMK AO2 T00790070
K66R 180915Z AUTO 00000KT 1 1/2SM BR VV007 08/07 A3016 RMK AO2 VIS 1V5 T00760068
K66R 180855Z AUTO 00000KT 10SM CLR 08/06 A3016 RMK AO2 T00750064
K66R 180835Z AUTO 00000KT 10SM CLR 08/06 A3016 RMK AO2 T00760061
K66R 180815Z AUTO 00000KT 10SM CLR 08/07 A3017 RMK AO2 T00800068
K66R 180755Z AUTO 00000KT 10SM CLR 08/07 A3017 RMK AO2 T00770065
K66R 180735Z AUTO 00000KT 10SM CLR 08/07 A3017 RMK AO2 T00810072
K66R 180715Z AUTO 00000KT 10SM CLR 08/07 A3017 RMK AO2 T00810069
K66R 180655Z AUTO 00000KT 10SM CLR 08/07 A3017 RMK AO2 T00830072
K66R 180635Z AUTO 00000KT 10SM CLR 09/07 A3017 RMK AO2 T00890073
K66R 180615Z AUTO 00000KT 10SM CLR 09/08 A3017 RMK AO2 T00880078